Time;durP1;ratioP1;P1;durP2;ratioP2;P2;SDS_P1;SDS_P2;PMS_P1;PMS_P2;Temp;Humidity;BMP_temperature;BMP_pressure;BME280_temperature;BME280_humidity;BME280_pressure;Samples;Min_cycle;Max_cycle;Signal;HPM_P1;HPM_P2
2022/02/18 00:00:37;;;;;;;14.63;7.57;;;;;;;1.77;83.93;96974.72;4994792;28;20115;-79
2022/02/18 00:03:03;;;;;;;16.92;8.65;;;;;;;1.71;83.87;96977.41;4993827;28;20064;-80
2022/02/18 00:05:29;;;;;;;16.65;8.27;;;;;;;1.76;83.92;96983.31;5013236;28;20563;-80
2022/02/18 00:07:55;;;;;;;16.48;8.32;;;;;;;1.73;83.79;96961.13;5020349;28;20045;-79
2022/02/18 00:10:21;;;;;;;17.30;8.90;;;;;;;1.48;83.94;96919.72;5017235;28;20110;-78
2022/02/18 00:12:46;;;;;;;14.40;8.07;;;;;;;1.72;83.62;96968.84;5014879;28;20052;-78
2022/02/18 00:15:14;;;;;;;12.15;6.80;;;;;;;1.84;83.29;96978.03;5015937;28;20087;-78
2022/02/18 00:17:39;;;;;;;16.70;7.47;;;;;;;1.75;83.86;96963.69;5015374;28;20571;-79
2022/02/18 00:20:07;;;;;;;13.50;6.90;;;;;;;1.82;83.65;96978.06;5016085;28;20045;-78
2022/02/18 00:22:33;;;;;;;14.82;7.70;;;;;;;1.57;83.76;96923.84;5015772;28;20045;-79
2022/02/18 00:24:59;;;;;;;14.50;6.90;;;;;;;1.74;83.09;96962.81;5015805;28;20038;-80
2022/02/18 00:27:25;;;;;;;14.95;8.05;;;;;;;1.83;83.28;96955.84;4996377;28;20049;-78
2022/02/18 00:29:51;;;;;;;15.30;7.30;;;;;;;1.68;84.11;96950.09;5015982;28;20073;-78
2022/02/18 00:32:17;;;;;;;14.45;7.50;;;;;;;1.70;83.56;96935.53;4980986;28;20910;-78
2022/02/18 00:34:43;;;;;;;9.18;5.68;;;;;;;1.76;83.62;96935.44;5016789;28;20044;-78
2022/02/18 00:37:09;;;;;;;12.75;7.22;;;;;;;1.87;83.17;96936.94;5014950;28;20405;-78
2022/02/18 00:39:37;;;;;;;12.88;6.97;;;;;;;1.76;83.89;96921.78;5015810;28;20038;-78
2022/02/18 00:42:03;;;;;;;12.05;6.65;;;;;;;1.90;83.15;96939.44;5019496;28;20060;-80
2022/02/18 00:44:29;;;;;;;13.13;7.45;;;;;;;1.69;83.78;96900.50;5014421;28;20501;-81
2022/02/18 00:46:57;;;;;;;14.45;7.68;;;;;;;1.86;84.18;96928.41;5031651;28;20046;-79
2022/02/18 00:49:22;;;;;;;12.82;7.20;;;;;;;1.88;84.25;96930.91;5013718;28;20037;-79
2022/02/18 00:51:48;;;;;;;12.48;6.70;;;;;;;1.70;83.69;96899.66;4981212;28;20049;-78
2022/02/18 00:54:14;;;;;;;11.25;6.43;;;;;;;1.80;83.71;96906.28;5014574;28;20044;-80
2022/02/18 00:56:40;;;;;;;13.00;6.82;;;;;;;1.94;83.64;96920.53;5014654;28;20139;-79
2022/02/18 00:59:08;;;;;;;9.45;5.55;;;;;;;2.00;83.24;96943.50;5015515;28;20053;-78
2022/02/18 01:01:33;;;;;;;11.18;6.82;;;;;;;1.90;83.57;96935.16;5015700;28;20049;-80
2022/02/18 01:04:00;;;;;;;12.27;6.82;;;;;;;1.98;83.67;96947.81;5016751;28;20434;-79
2022/02/18 01:06:26;;;;;;;10.95;6.45;;;;;;;1.97;83.44;96943.56;5015619;28;20125;-79
2022/02/18 01:08:53;;;;;;;12.98;7.20;;;;;;;2.00;83.45;96943.50;5019367;28;20046;-77
2022/02/18 01:11:20;;;;;;;12.02;7.25;;;;;;;1.83;83.38;96935.31;5018411;28;20048;-80
2022/02/18 01:13:46;;;;;;;11.93;6.72;;;;;;;1.98;83.51;96962.38;5002278;28;20042;-78
2022/02/18 01:16:17;;;;;;;11.05;6.25;;;;;;;1.89;83.49;96956.56;4985697;28;20455;-80
2022/02/18 01:18:43;;;;;;;12.93;7.25;;;;;;;2.02;83.53;96959.72;5018115;28;20044;-76
2022/02/18 01:21:10;;;;;;;12.32;6.95;;;;;;;2.04;83.52;96963.09;5020730;28;20069;-79
2022/02/18 01:23:36;;;;;;;10.75;6.55;;;;;;;2.06;83.50;96957.94;5018058;28;20473;-80
2022/02/18 01:26:04;;;;;;;11.68;6.78;;;;;;;1.89;82.96;96946.28;5020329;28;20041;-78
2022/02/18 01:28:30;;;;;;;12.63;7.10;;;;;;;1.96;83.50;96954.72;5019839;28;20038;-78
2022/02/18 01:30:57;;;;;;;14.15;7.05;;;;;;;1.87;83.90;96935.22;5020878;28;20037;-78
2022/02/18 01:33:23;;;;;;;9.45;6.10;;;;;;;1.88;83.57;96936.03;5005572;28;20121;-80
2022/02/18 01:35:50;;;;;;;13.20;7.45;;;;;;;2.11;83.34;96982.59;4989945;28;20149;-79
2022/02/18 01:38:17;;;;;;;13.02;7.13;;;;;;;2.10;83.39;96965.53;5020650;28;20049;-80
2022/02/18 01:40:43;;;;;;;10.70;6.50;;;;;;;2.13;83.23;96992.00;5006660;28;20087;-78
2022/02/18 01:43:09;;;;;;;12.68;7.45;;;;;;;2.03;83.06;96969.09;5018971;28;20497;-78
2022/02/18 01:45:35;;;;;;;11.23;6.60;;;;;;;1.92;83.31;96948.81;5018618;28;20041;-80
2022/02/18 01:48:00;;;;;;;13.45;7.70;;;;;;;2.11;83.51;96984.34;5002040;28;20474;-78
2022/02/18 01:50:26;;;;;;;15.15;8.05;;;;;;;1.15;82.86;96824.66;4984397;28;20045;-79
2022/02/18 01:52:54;;;;;;;11.77;6.72;;;;;;;2.17;83.29;96980.81;5016779;28;20034;-79
2022/02/18 01:55:21;;;;;;;10.75;6.75;;;;;;;2.24;82.96;96982.38;5016732;28;20056;-77
2022/02/18 01:57:56;;;;;;;12.20;6.88;;;;;;;2.22;83.04;96968.72;5005441;28;20260;-78
2022/02/18 02:00:29;;;;;;;13.75;7.60;;;;;;;2.26;82.69;96988.31;5016878;28;20038;-78
2022/02/18 02:02:56;;;;;;;13.18;6.97;;;;;;;2.01;82.66;96944.34;4985108;28;20048;-79
2022/02/18 02:05:23;;;;;;;11.20;7.00;;;;;;;2.15;82.71;96959.47;5018591;28;20054;-79
2022/02/18 02:07:50;;;;;;;9.77;6.00;;;;;;;2.33;82.80;96991.59;5017553;28;20457;-78
2022/02/18 02:10:17;;;;;;;15.10;7.30;;;;;;;2.29;82.92;96982.28;5017225;28;20045;-79
2022/02/18 02:12:50;;;;;;;12.00;6.88;;;;;;;2.34;82.97;97004.41;4999546;28;20071;-78
2022/02/18 02:15:24;;;;;;;10.43;6.40;;;;;;;2.24;83.00;96977.25;4989436;28;20062;-79
2022/02/18 02:17:50;;;;;;;11.85;6.97;;;;;;;2.33;82.43;96996.75;5000498;28;20080;-78
2022/02/18 02:20:17;;;;;;;13.32;7.55;;;;;;;2.21;82.46;96973.00;5017193;28;20145;-77
2022/02/18 02:22:44;;;;;;;12.43;5.90;;;;;;;2.32;82.69;96983.03;5001011;28;20489;-79
2022/02/18 02:25:11;;;;;;;14.00;7.43;;;;;;;2.42;82.69;96983.72;5000260;28;20053;-78
2022/02/18 02:27:39;;;;;;;10.32;6.53;;;;;;;2.47;82.73;96978.50;5005217;28;21478;-79
2022/02/18 02:30:08;;;;;;;10.45;6.40;;;;;;;2.49;82.60;96999.84;5032236;28;20043;-78
2022/02/18 02:32:34;;;;;;;11.73;6.50;;;;;;;2.34;82.34;96983.88;5005825;28;20041;-78
2022/02/18 02:35:00;;;;;;;12.90;7.00;;;;;;;2.39;82.89;96986.34;5016049;28;20048;-77
2022/02/18 02:37:26;;;;;;;11.05;6.80;;;;;;;2.46;82.10;97002.47;5000217;28;20045;-77
2022/02/18 02:39:51;;;;;;;12.18;6.68;;;;;;;2.49;82.51;97007.53;5016350;28;20038;-79
2022/02/18 02:42:25;;;;;;;10.63;6.25;;;;;;;2.29;82.52;96995.09;5016637;28;20041;-78
2022/02/18 02:44:57;;;;;;;11.85;6.65;;;;;;;2.48;82.41;97021.25;5016538;28;20727;-79
2022/02/18 02:47:24;;;;;;;11.50;6.63;;;;;;;2.48;82.85;97019.50;5002012;28;20140;-80
2022/02/18 02:49:56;;;;;;;10.63;6.50;;;;;;;2.40;82.37;97017.09;5008177;28;20044;-78
2022/02/18 02:52:21;;;;;;;12.48;6.68;;;;;;;2.43;82.47;97017.94;5022644;28;20045;-78
2022/02/18 02:54:47;;;;;;;10.18;5.93;;;;;;;2.30;82.29;97010.50;5021682;28;20053;-79
2022/02/18 02:57:13;;;;;;;12.60;7.40;;;;;;;2.41;82.35;97018.81;5017087;28;20042;-79
2022/02/18 02:59:46;;;;;;;11.18;6.88;;;;;;;2.40;82.32;97011.97;5000138;28;20037;-78
2022/02/18 03:02:12;;;;;;;11.88;6.50;;;;;;;2.49;82.50;97026.34;5017097;28;20227;-76
2022/02/18 03:04:40;;;;;;;13.15;7.03;;;;;;;2.34;82.78;97009.53;5016727;28;20068;-78
2022/02/18 03:07:06;;;;;;;14.00;6.70;;;;;;;2.49;82.60;97031.47;5000996;28;20501;-79
2022/02/18 03:09:33;;;;;;;11.27;6.45;;;;;;;2.41;82.68;97017.97;4999978;28;20034;-76
2022/02/18 03:12:07;;;;;;;14.50;6.93;;;;;;;2.46;82.38;97033.28;5015408;28;20101;-78
2022/02/18 03:14:46;;;;;;;12.30;5.90;;;;;;;2.46;82.23;97048.66;4999531;28;20143;-78
2022/02/18 03:17:20;;;;;;;14.07;7.30;;;;;;;2.19;82.35;97014.97;4999871;28;20505;-81
2022/02/18 03:19:46;;;;;;;12.25;6.75;;;;;;;2.28;82.50;97032.78;4999012;28;20037;-78
2022/02/18 03:22:24;;;;;;;12.10;6.18;;;;;;;2.32;82.67;97036.94;5016864;28;20046;-78
2022/02/18 03:24:53;;;;;;;12.32;7.32;;;;;;;2.32;82.56;97031.81;5017681;28;20581;-79
2022/02/18 03:27:19;;;;;;;15.43;8.48;;;;;;;2.35;82.43;97046.31;5019904;28;20140;-79
2022/02/18 03:29:45;;;;;;;12.82;6.63;;;;;;;2.31;82.65;97030.16;5005483;28;20143;-77
2022/02/18 03:32:20;;;;;;;10.45;6.25;;;;;;;2.31;82.56;97037.00;5018530;28;20042;-77
2022/02/18 03:34:45;;;;;;;10.27;5.60;;;;;;;2.21;82.10;97028.63;5024093;28;20138;-77
2022/02/18 03:37:12;;;;;;;10.30;6.57;;;;;;;2.19;82.24;97036.38;5001649;28;20521;-76
2022/02/18 03:39:37;;;;;;;11.07;6.07;;;;;;;2.22;82.48;97035.44;4998172;28;20957;-78
2022/02/18 03:42:03;;;;;;;11.40;6.85;;;;;;;2.33;82.46;97051.47;5018019;28;20038;-78
2022/02/18 03:44:31;;;;;;;10.73;6.53;;;;;;;2.16;82.26;97017.59;5015901;28;20049;-79
2022/02/18 03:47:07;;;;;;;12.60;7.22;;;;;;;2.34;82.45;97050.59;5000816;28;20038;-78
2022/02/18 03:49:34;;;;;;;13.40;6.75;;;;;;;2.30;82.63;97051.56;5016814;28;20060;-79
2022/02/18 03:52:02;;;;;;;12.70;7.65;;;;;;;2.36;82.35;97053.97;4999718;28;20049;-79
2022/02/18 03:54:28;;;;;;;13.27;6.97;;;;;;;2.34;82.78;97050.59;5018327;28;20459;-78
2022/02/18 03:56:55;;;;;;;13.27;6.80;;;;;;;2.44;82.73;97053.81;5003392;28;20037;-77
2022/02/18 03:59:27;;;;;;;11.85;6.80;;;;;;;2.50;82.74;97065.72;4999769;28;20400;-79
2022/02/18 04:02:12;;;;;;;15.23;7.72;;;;;;;2.46;82.33;97064.91;5017460;28;20076;-78
2022/02/18 04:04:38;;;;;;;14.68;7.13;;;;;;;1.94;82.11;96976.97;5016168;28;20985;-80
2022/02/18 04:07:29;;;;;;;13.65;7.03;;;;;;;2.48;82.10;97078.56;4998594;28;20145;-79
2022/02/18 04:09:59;;;;;;;13.77;7.20;;;;;;;2.26;81.89;97044.78;4982903;28;20227;-78
2022/02/18 04:12:26;;;;;;;13.82;6.97;;;;;;;2.49;82.00;97080.25;5004907;28;20050;-79
2022/02/18 04:15:01;;;;;;;14.15;7.25;;;;;;;2.44;82.44;97068.38;4997671;28;21156;-78
2022/02/18 04:17:28;;;;;;;10.65;6.32;;;;;;;2.27;82.53;97043.91;5004070;28;20137;-76
2022/02/18 04:20:06;;;;;;;11.98;7.20;;;;;;;2.51;82.44;97085.38;5001880;28;20046;-79
2022/02/18 04:22:47;;;;;;;13.30;7.35;;;;;;;2.51;82.36;97080.25;5004758;28;20529;-78
2022/02/18 04:25:18;;;;;;;13.77;7.82;;;;;;;2.50;82.04;97093.94;5001485;28;20851;-80
2022/02/18 04:27:59;;;;;;;15.95;8.27;;;;;;;2.55;82.47;97085.28;5019791;28;20050;-78
2022/02/18 04:30:25;;;;;;;15.90;8.05;;;;;;;2.44;82.14;97060.69;5015178;28;20041;-80
2022/02/18 04:32:51;;;;;;;13.38;7.25;;;;;;;2.49;82.18;97074.28;4998686;28;20040;-81
2022/02/18 04:35:17;;;;;;;14.98;8.05;;;;;;;2.60;82.26;97084.34;5014713;28;20037;-79
2022/02/18 04:37:44;;;;;;;15.95;8.13;;;;;;;2.36;82.00;97050.59;5013924;28;20196;-78
2022/02/18 04:40:13;;;;;;;14.23;7.63;;;;;;;2.64;81.74;97109.91;5017756;28;20076;-79
2022/02/18 04:42:39;;;;;;;12.70;7.68;;;;;;;2.57;82.13;97092.94;5000602;28;20115;-79
2022/02/18 04:45:05;;;;;;;15.27;7.43;;;;;;;2.58;82.25;97097.19;5020349;28;20129;-80
2022/02/18 04:47:32;;;;;;;13.80;7.75;;;;;;;2.58;82.04;97080.97;5021417;28;20100;-80
2022/02/18 04:50:03;;;;;;;15.48;7.50;;;;;;;2.66;82.05;97107.31;5019269;28;20528;-79
2022/02/18 04:52:29;;;;;;;16.85;8.40;;;;;;;2.61;82.04;97094.56;5019444;28;20072;-80
2022/02/18 04:54:55;;;;;;;15.82;7.80;;;;;;;2.67;82.36;97109.00;5023872;28;20063;-80
2022/02/18 04:57:21;;;;;;;14.68;8.00;;;;;;;2.60;82.37;97090.31;5024351;28;20076;-78
2022/02/18 04:59:47;;;;;;;20.83;7.80;;;;;;;2.54;82.11;97082.72;5023996;28;20042;-80
2022/02/18 05:02:14;;;;;;;15.40;7.43;;;;;;;2.66;81.93;97092.75;5022528;28;20038;-80
2022/02/18 05:04:40;;;;;;;15.05;7.88;;;;;;;2.74;82.33;97112.31;5024475;28;20053;-79
2022/02/18 05:07:06;;;;;;;14.30;8.07;;;;;;;2.75;82.37;97114.00;5041698;28;20040;-78
2022/02/18 05:09:33;;;;;;;14.77;7.95;;;;;;;2.69;82.05;97109.81;5029821;28;20109;-78
2022/02/18 05:11:58;;;;;;;14.73;7.82;;;;;;;2.69;82.58;97108.09;5028213;28;20133;-79
2022/02/18 05:14:24;;;;;;;17.20;8.40;;;;;;;2.69;82.66;97105.53;5042160;28;20057;-78
2022/02/18 05:16:50;;;;;;;13.02;7.78;;;;;;;2.69;82.13;97097.84;5026830;28;20029;-81
2022/02/18 05:19:16;;;;;;;14.30;7.60;;;;;;;2.85;82.19;97121.50;5026981;28;20018;-78
2022/02/18 05:21:42;;;;;;;13.70;8.00;;;;;;;2.82;81.93;97120.69;5044311;28;20041;-80
2022/02/18 05:24:08;;;;;;;13.15;6.18;;;;;;;2.70;81.95;97119.22;5045274;28;20025;-78
2022/02/18 05:26:35;;;;;;;12.70;7.38;;;;;;;2.80;81.80;97125.00;5042171;28;20073;-78
2022/02/18 05:29:01;;;;;;;13.75;7.22;;;;;;;2.85;82.00;97126.63;5002527;28;20044;-79
2022/02/18 05:31:27;;;;;;;14.93;7.80;;;;;;;2.73;81.90;97100.34;5018763;28;20441;-79
2022/02/18 05:33:53;;;;;;;11.52;6.75;;;;;;;2.83;81.83;97119.81;5018082;28;20072;-78
2022/02/18 05:36:21;;;;;;;12.80;6.93;;;;;;;2.92;81.97;97132.47;5016636;28;20042;-80
2022/02/18 05:38:47;;;;;;;12.48;6.53;;;;;;;2.85;81.95;97121.50;5023373;28;20528;-81
2022/02/18 05:41:13;;;;;;;12.63;6.53;;;;;;;2.90;82.06;97136.78;5018892;28;20065;-83
2022/02/18 05:43:39;;;;;;;12.27;6.55;;;;;;;2.88;81.81;97124.84;5022519;28;20119;-80
2022/02/18 05:46:08;;;;;;;12.55;6.65;;;;;;;2.59;81.26;97085.22;5026939;28;20052;-79
2022/02/18 05:48:34;;;;;;;14.07;7.30;;;;;;;2.80;81.99;97113.03;5021606;28;20042;-80
2022/02/18 05:51:04;;;;;;;12.63;6.50;;;;;;;2.17;81.89;97002.19;5003421;28;20103;-81
2022/02/18 05:53:36;;;;;;;11.98;7.03;;;;;;;2.71;82.00;97085.81;5020087;28;20090;-82
2022/02/18 05:56:05;;;;;;;10.98;5.88;;;;;;;2.21;81.53;96990.97;5021437;28;20061;-84
2022/02/18 05:58:32;;;;;;;11.57;6.00;;;;;;;2.75;81.81;97068.59;5003217;28;20061;-82
2022/02/18 06:00:58;;;;;;;10.18;5.43;;;;;;;3.19;81.32;97144.75;5009920;28;20042;-83
2022/02/18 06:03:24;;;;;;;12.07;6.45;;;;;;;2.65;81.38;97060.25;5017000;28;20052;-79
2022/02/18 06:05:50;;;;;;;10.95;6.05;;;;;;;3.16;81.67;97137.97;5014790;28;20041;-79
2022/02/18 06:08:25;;;;;;;9.85;5.35;;;;;;;3.28;82.00;97170.28;5020403;28;20037;-79
2022/02/18 06:10:52;;;;;;;10.63;5.65;;;;;;;2.56;81.29;97052.72;5005032;28;20378;-83
2022/02/18 06:13:18;;;;;;;9.15;5.18;;;;;;;2.77;81.16;97083.97;5017127;28;20045;-81
2022/02/18 06:16:25;;;;;;;9.57;5.63;;;;;;;2.08;81.47;97003.22;4985466;28;20582;-80
2022/02/18 06:18:53;;;;;;;7.38;4.22;;;;;;;2.84;81.11;97130.06;5004234;28;20038;-79
2022/02/18 06:21:19;;;;;;;9.05;4.70;;;;;;;2.66;81.46;97097.91;5002021;28;20045;-80
2022/02/18 06:23:47;;;;;;;9.25;4.97;;;;;;;2.74;80.93;97120.00;5020032;28;20048;-81
2022/02/18 06:26:14;;;;;;;8.82;5.15;;;;;;;2.77;81.06;97119.94;5020895;28;20045;-80
2022/02/18 06:28:40;;;;;;;9.52;5.18;;;;;;;2.43;80.74;97070.09;5019954;28;20041;-80
2022/02/18 06:31:07;;;;;;;8.75;4.55;;;;;;;3.15;80.78;97197.97;5026454;28;20148;-84
2022/02/18 06:33:46;;;;;;;9.55;5.45;;;;;;;2.66;80.82;97118.44;5024858;28;20061;-81
2022/02/18 06:36:12;;;;;;;7.70;4.72;;;;;;;2.50;81.26;97087.06;5002309;28;20116;-80
2022/02/18 06:38:40;;;;;;;7.55;4.60;;;;;;;2.90;80.92;97164.19;5000660;28;20479;-79
2022/02/18 06:41:06;;;;;;;8.35;4.75;;;;;;;2.86;81.26;97138.59;5036362;28;20101;-80
2022/02/18 06:43:33;;;;;;;10.13;5.18;;;;;;;2.82;80.98;97151.50;5009726;28;20065;-84
2022/02/18 06:45:58;;;;;;;9.63;5.43;;;;;;;2.22;80.90;97048.28;4982892;28;20038;-83
2022/02/18 06:48:36;;;;;;;9.07;4.95;;;;;;;3.33;81.32;97226.72;5041975;28;20069;-82
2022/02/18 06:51:02;;;;;;;6.93;4.60;;;;;;;3.34;81.04;97213.81;5024971;28;21216;-83
2022/02/18 06:53:28;;;;;;;8.90;4.65;;;;;;;2.75;80.92;97124.28;5022790;28;20106;-82
2022/02/18 06:56:02;;;;;;;7.03;4.40;;;;;;;3.39;80.71;97234.31;5026169;28;20048;-84
2022/02/18 06:58:34;;;;;;;7.35;4.70;;;;;;;3.38;80.91;97217.19;5010255;28;20052;-83
2022/02/18 07:01:38;;;;;;;7.55;4.68;;;;;;;2.88;80.66;97160.81;5032359;28;20049;-82
2022/02/18 07:04:06;;;;;;;9.88;5.03;;;;;;;2.66;80.50;97118.44;5033562;28;20041;-83
2022/02/18 07:06:31;;;;;;;10.82;5.68;;;;;;;3.09;80.93;97177.53;5030374;28;20042;-83
2022/02/18 07:08:57;;;;;;;7.38;4.78;;;;;;;3.42;81.05;97203.41;5033501;28;20060;-81
2022/02/18 07:11:23;;;;;;;7.00;5.22;;;;;;;3.05;81.08;97153.63;4998121;28;20053;-83
2022/02/18 07:13:49;;;;;;;8.60;4.50;;;;;;;3.35;80.58;97212.94;5002395;28;20052;-83
2022/02/18 07:16:15;;;;;;;10.15;5.28;;;;;;;3.46;80.79;97223.00;4987624;28;20049;-82
2022/02/18 07:18:42;;;;;;;10.63;4.88;;;;;;;3.07;80.44;97153.56;4986511;28;20065;-83
2022/02/18 07:21:12;;;;;;;9.27;5.38;;;;;;;3.41;80.46;97215.41;5005076;28;20057;-86
2022/02/18 07:23:38;;;;;;;8.45;5.60;;;;;;;3.43;80.33;97231.66;5021106;28;20037;-83
2022/02/18 07:26:07;;;;;;;8.50;5.90;;;;;;;3.69;80.40;97258.53;5007028;28;20102;-84
2022/02/18 07:28:34;;;;;;;9.10;5.90;;;;;;;2.60;80.45;97059.50;5003613;28;20484;-82
2022/02/18 07:31:00;;;;;;;7.70;5.20;;;;;;;3.58;80.44;97220.19;4985135;28;20045;-85
2022/02/18 07:33:31;;;;;;;14.35;6.97;;;;;;;3.42;80.06;97200.84;5003326;28;20049;-81
2022/02/18 07:35:57;;;;;;;9.43;5.53;;;;;;;3.07;80.57;97140.72;5003539;28;20064;-81
2022/02/18 07:38:23;;;;;;;10.13;6.20;;;;;;;3.37;80.35;97182.09;5020064;28;20033;-82
2022/02/18 07:40:49;;;;;;;9.38;5.97;;;;;;;2.86;80.19;97099.19;5004269;28;20068;-81
2022/02/18 11:47:35;;;;;;;2.85;1.67;;;;;;;5.87;67.59;97654.69;5137449;27;20142;-83
2022/02/18 11:50:09;;;;;;;5.30;1.88;;;;;;;6.05;67.34;97688.72;5130771;27;20511;-82
2022/02/18 11:52:43;;;;;;;3.65;1.50;;;;;;;5.98;66.87;97677.66;5124404;28;20044;-84
2022/02/18 11:55:29;;;;;;;3.88;1.60;;;;;;;5.66;67.01;97660.38;5094823;28;20032;-82
2022/02/18 11:58:19;;;;;;;3.38;1.50;;;;;;;5.70;66.93;97718.78;5125209;28;20039;-85
2022/02/18 12:00:49;;;;;;;2.80;1.40;;;;;;;5.18;66.60;97648.53;5105332;28;20522;-83
2022/02/18 12:03:20;;;;;;;2.90;1.60;;;;;;;5.06;66.59;97675.44;5113649;28;20281;-82
2022/02/18 12:06:06;;;;;;;4.88;1.75;;;;;;;5.28;66.84;97728.25;5127371;28;20437;-84
2022/02/18 12:08:34;;;;;;;3.60;1.90;;;;;;;5.21;67.12;97733.53;5118734;28;20040;-83
2022/02/18 12:11:12;;;;;;;4.38;1.80;;;;;;;5.09;66.62;97714.00;5110598;28;20507;-84
2022/02/18 12:13:56;;;;;;;3.28;1.48;;;;;;;5.22;67.01;97743.84;5128465;28;20043;-83
2022/02/18 12:16:26;;;;;;;5.20;1.63;;;;;;;4.87;67.08;97705.84;5128803;28;20032;-85
2022/02/18 12:19:13;;;;;;;4.13;1.75;;;;;;;4.78;65.83;97706.88;5134057;28;20035;-83
2022/02/18 12:22:05;;;;;;;4.93;1.60;;;;;;;4.98;66.29;97764.06;5137121;28;20071;-83
2022/02/18 12:24:44;;;;;;;3.47;1.40;;;;;;;4.87;66.81;97737.63;5135119;27;20046;-86
2022/02/18 12:27:27;;;;;;;3.45;2.40;;;;;;;5.06;66.14;97779.38;5145951;27;20023;-85
2022/02/18 12:30:22;;;;;;;4.32;1.40;;;;;;;4.91;65.38;97772.78;5135640;28;20462;-81
2022/02/18 12:32:53;;;;;;;2.45;1.30;;;;;;;4.79;65.87;97779.00;5132194;28;20047;-84
2022/02/18 12:35:48;;;;;;;2.38;1.30;;;;;;;4.59;65.46;97773.34;5092660;28;20059;-79
2022/02/18 12:38:23;;;;;;;1.67;1.25;;;;;;;3.96;65.38;97683.41;5103692;28;20074;-82
2022/02/18 12:40:58;;;;;;;2.20;1.20;;;;;;;4.42;65.28;97756.47;5112914;28;20055;-81
2022/02/18 12:43:30;;;;;;;2.55;2.00;;;;;;;3.86;64.88;97674.97;5129850;28;20039;-84
2022/02/18 12:45:58;;;;;;;2.30;1.08;;;;;;;4.21;65.51;97735.34;5113777;28;20111;-84
2022/02/18 12:48:40;;;;;;;5.18;1.20;;;;;;;4.54;64.73;97796.63;5083055;28;20043;-80
2022/02/18 12:51:13;;;;;;;2.13;0.82;;;;;;;4.37;65.14;97776.28;5095349;28;20036;-81
2022/02/18 12:53:41;;;;;;;2.22;1.00;;;;;;;4.12;64.64;97750.91;5099060;28;20040;-85
2022/02/18 12:56:20;;;;;;;4.82;1.33;;;;;;;4.27;65.18;97788.44;5111303;28;20036;-83
2022/02/18 12:59:00;;;;;;;2.03;1.20;;;;;;;4.21;64.44;97783.38;5101319;28;20044;-80
2022/02/18 13:01:28;;;;;;;1.83;1.27;;;;;;;4.18;64.77;97786.88;5078610;28;20032;-80
2022/02/18 13:03:54;;;;;;;3.85;1.48;;;;;;;4.10;64.34;97782.72;5107458;28;20419;-85
2022/02/18 13:06:23;;;;;;;4.78;2.72;;;;;;;4.21;64.76;97802.28;5108477;28;20035;-82
2022/02/18 13:08:49;;;;;;;4.55;1.73;;;;;;;4.21;65.34;97810.00;5101292;28;20040;-80
2022/02/18 13:11:20;;;;;;;3.53;1.48;;;;;;;4.33;64.85;97834.72;5106500;28;20105;-82
2022/02/18 13:13:46;;;;;;;3.33;1.60;;;;;;;3.70;65.12;97748.09;5095861;28;20044;-85
2022/02/18 13:16:16;;;;;;;3.35;1.60;;;;;;;4.05;64.80;97834.28;5098282;28;20063;-85
2022/02/18 13:18:45;;;;;;;2.58;1.48;;;;;;;3.99;65.39;97839.50;5087977;28;20047;-83
2022/02/18 13:21:39;;;;;;;2.70;1.30;;;;;;;3.82;65.28;97825.16;5090899;28;20051;-82
2022/02/18 13:24:12;;;;;;;2.05;1.50;;;;;;;3.41;64.92;97769.94;5098561;27;20043;-86
2022/02/18 13:27:14;;;;;;;3.58;1.50;;;;;;;3.97;65.03;97854.09;5088234;28;20050;-83
2022/02/18 13:29:54;;;;;;;2.45;1.33;;;;;;;3.79;65.35;97838.03;5069057;28;20054;-81
2022/02/18 13:32:25;;;;;;;2.25;1.25;;;;;;;3.64;65.36;97817.66;5095395;28;20101;-82
2022/02/18 13:34:54;;;;;;;3.03;1.38;;;;;;;3.15;65.10;97753.94;5094470;28;20563;-80
2022/02/18 13:45:01;;;;;;;2.35;1.20;;;;;;;3.20;65.03;97815.56;5023361;28;20486;-84
2022/02/18 13:47:30;;;;;;;2.78;1.35;;;;;;;3.57;65.31;97881.16;5025440;28;20061;-82
2022/02/18 13:50:03;;;;;;;2.08;1.00;;;;;;;3.31;65.25;97857.44;5079049;28;20043;-82
2022/02/18 13:52:29;;;;;;;1.55;0.93;;;;;;;3.47;65.19;97890.72;5094767;28;20066;-82
2022/02/18 13:54:55;;;;;;;3.08;1.40;;;;;;;3.34;64.94;97877.13;5097111;28;20050;-83
2022/02/18 13:57:30;;;;;;;2.60;1.15;;;;;;;3.31;65.04;97887.47;5083923;28;20040;-85
2022/02/18 13:59:56;;;;;;;1.55;0.90;;;;;;;3.24;65.41;97903.81;5059430;28;20046;-84
2022/02/18 14:02:22;;;;;;;1.50;0.70;;;;;;;3.15;64.74;97907.31;5104814;28;20462;-83
2022/02/18 14:04:50;;;;;;;3.50;1.20;;;;;;;2.78;65.33;97851.97;5118892;28;20051;-83
2022/02/18 14:07:28;;;;;;;2.03;0.70;;;;;;;3.07;65.23;97906.53;5102454;28;20120;-82
2022/02/18 14:09:59;;;;;;;2.10;1.00;;;;;;;2.48;64.80;97825.66;5097357;28;20063;-84
2022/02/18 14:12:47;;;;;;;3.10;1.20;;;;;;;2.85;65.00;97899.88;5097775;28;20062;-83
2022/02/18 14:15:18;;;;;;;1.90;1.50;;;;;;;2.92;65.36;97923.78;5096032;28;20044;-83
2022/02/18 14:17:44;;;;;;;1.95;1.35;;;;;;;2.85;64.70;97929.84;5100344;28;20036;-82
2022/02/18 14:20:15;;;;;;;3.75;1.30;;;;;;;2.69;64.94;97918.81;5093483;28;20082;-83
2022/02/18 14:22:43;;;;;;;3.45;1.33;;;;;;;2.85;64.78;97955.53;5101396;28;20036;-85
2022/02/18 14:25:33;;;;;;;3.33;1.17;;;;;;;2.87;64.81;97974.34;5093190;28;20520;-85
2022/02/18 14:28:09;;;;;;;2.45;1.20;;;;;;;2.87;65.10;97984.63;5093571;28;20138;-82
2022/02/18 14:30:54;;;;;;;1.35;1.10;;;;;;;2.74;64.62;97967.59;5113903;28;20426;-86
2022/02/18 14:33:30;;;;;;;1.83;0.82;;;;;;;2.62;64.71;97961.66;5096500;28;20443;-85
2022/02/18 14:35:59;;;;;;;4.47;1.30;;;;;;;2.86;64.45;98013.75;5106543;28;20047;-83
2022/02/18 14:38:25;;;;;;;6.15;1.50;;;;;;;2.69;64.43;97980.44;5086686;28;20038;-83
2022/02/18 14:40:57;;;;;;;2.83;1.05;;;;;;;2.86;64.18;98018.88;5099435;28;20416;-86
2022/02/18 14:43:23;;;;;;;2.58;0.90;;;;;;;2.40;64.44;97953.25;5077713;28;20036;-86
2022/02/18 14:45:49;;;;;;;1.83;1.00;;;;;;;2.73;64.10;98007.00;5080621;28;20066;-85
2022/02/18 14:48:16;;;;;;;2.83;1.10;;;;;;;2.44;63.71;97959.22;5082850;28;20050;-83
2022/02/18 14:50:43;;;;;;;2.20;1.27;;;;;;;2.85;63.85;98037.75;5094490;28;20036;-83
2022/02/18 14:53:20;;;;;;;1.60;0.93;;;;;;;2.77;63.95;98026.63;5092037;28;20036;-84
2022/02/18 14:55:46;;;;;;;4.25;1.10;;;;;;;2.69;63.08;98017.28;5101908;28;20051;-81
2022/02/18 14:58:12;;;;;;;1.88;0.90;;;;;;;2.74;63.03;98029.25;5120309;28;20051;-81
2022/02/18 15:00:43;;;;;;;2.20;1.30;;;;;;;2.64;63.09;98020.75;5114473;28;20037;-86
2022/02/18 15:03:08;;;;;;;2.45;1.35;;;;;;;2.40;63.46;97971.22;5098341;28;20043;-84
2022/02/18 15:05:37;;;;;;;3.30;1.40;;;;;;;2.83;62.72;98049.75;5093522;28;20046;-84
2022/02/18 15:08:10;;;;;;;2.55;1.55;;;;;;;2.82;63.15;98040.31;5095465;28;20043;-85
2022/02/18 15:10:37;;;;;;;3.20;1.52;;;;;;;2.63;62.87;98007.03;5083015;28;20065;-83
2022/02/18 15:13:06;;;;;;;3.38;1.50;;;;;;;3.05;62.43;98062.47;5100681;28;20048;-84
2022/02/18 15:15:38;;;;;;;2.05;1.20;;;;;;;2.59;62.38;97982.22;5094519;28;20546;-86
2022/02/18 15:18:04;;;;;;;2.63;1.30;;;;;;;2.39;62.51;97957.50;5095111;28;20531;-87
2022/02/18 15:20:31;;;;;;;4.78;1.77;;;;;;;2.68;61.72;98009.56;5093497;28;20036;-87
2022/02/18 15:22:58;;;;;;;2.75;1.30;;;;;;;2.73;62.11;98012.97;5098039;28;20122;-87
2022/02/18 15:25:23;;;;;;;1.90;1.25;;;;;;;2.83;62.04;98037.75;5071658;28;20040;-83
2022/02/18 15:27:49;;;;;;;4.53;1.45;;;;;;;2.98;62.02;98067.63;5084284;28;20816;-83
2022/02/18 15:36:04;;;;;;;3.22;1.30;;;;;;;2.76;61.53;98041.22;5031568;28;20118;-85
2022/02/18 15:38:30;;;;;;;4.80;1.92;;;;;;;2.82;61.75;98051.47;5068579;28;20147;-85
2022/02/18 15:43:57;;;;;;;11.23;5.82;;;;;;;2.86;61.02;98060.88;5027161;28;20125;-85
2022/02/18 15:46:23;;;;;;;5.47;3.42;;;;;;;2.77;61.47;98060.03;5081431;28;20541;-85
2022/02/18 15:48:49;;;;;;;3.05;1.70;;;;;;;2.77;61.29;98070.31;5089653;28;20085;-82
2022/02/18 15:51:15;;;;;;;2.72;1.70;;;;;;;2.65;61.03;98076.38;5086584;28;20036;-83
2022/02/18 15:53:41;;;;;;;3.58;1.77;;;;;;;2.34;61.05;98053.41;5086335;28;20523;-85
2022/02/18 15:56:07;;;;;;;4.15;2.38;;;;;;;2.55;61.29;98114.06;5098471;28;20043;-86
2022/02/18 15:58:40;;;;;;;3.05;2.13;;;;;;;2.36;61.10;98096.16;5098329;28;20044;-84
2022/02/18 16:01:09;;;;;;;3.55;1.98;;;;;;;2.09;61.27;98071.44;5101907;28;20104;-83
2022/02/18 16:03:36;;;;;;;3.88;2.10;;;;;;;2.03;61.67;98072.31;5114347;28;20040;-83
2022/02/18 16:06:02;;;;;;;3.10;1.88;;;;;;;2.00;61.91;98077.44;5113422;28;20055;-80
2022/02/18 16:08:28;;;;;;;3.38;2.25;;;;;;;1.97;61.39;98087.69;5096387;28;20024;-83